Terminal Aerodrome Forecast
Issued by NWS

Home | Current Version | Previous Version | Text Only | Print | Product List | Glossary On
Versions: 1 2 3 4 5 6 7 8 9 10 11 12 13 14 15 16 17 18
380
FTUS46 KLOX 281725
TAFLGB
TAF
KLGB 281725Z 2818/2918 21004KT P6SM OVC020
     FM282000 20010KT P6SM SCT025
     FM290000 29010KT P6SM SCT025
     FM290400 VRB03KT P6SM OVC015
     FM291600 17005KT P6SM OVC020=

USA.gov is the U.S. government's official web portal to all federal, state and local government web resources and services.